Capitol, South Carolina
Current Conditions -  °F | °C
As of 10:53 PM on Tuesday 25 Nov 2014 (Local Time) from KCUB Reporting Station
Light Rain Light Rain  
Wind Chill: 57°   Ceiling: 800
Heat Index: 57°   Visibility: 5mi
Dew Point: 55°   Wind: 3mph
Humidity: 93%   Direction: NA
Pressure: 29.98"   Gusts: NA
Location:  34.0004°N, 81.0344°W
Report Text: KCUB 260353Z AUTO VRB03KT 5SM -RA BR BKN008 BKN017 OVC029 14/13 A2998 RMK AO2 CIG 005V011 SLP151 P0001 T01390128
Loading
Personal Weather Stations






























Interactive Weather Map New forecast layout! Learn more

10-Day Weather Forecast

Advertisements
Track Severe Weather on mobile